Oakhurst, Oklahoma
Current Conditions -  °F | °C
As of 8:53 PM on Wednesday 26 Nov 2014 (Local Time) from KRVS Reporting Station
Clear Clear  
Wind Chill: 37°   Ceiling: Unl
Heat Index: 42°   Visibility: 10mi
Dew Point: 25°   Wind: 9mph
Humidity: 51%   Direction: 340°NNW
Pressure: 30.37"   Gusts: 18mph
Location:  36.08°N, 96.07°W
Report Text: KRVS 270253Z 34008G16KT 310V030 10SM CLR 06/M04 A3037 RMK AO2 SLP290 T00561039 53029
Loading
Personal Weather Stations






























Interactive Weather Map New forecast layout! Learn more

10-Day Weather Forecast

Advertisements
Track Severe Weather on mobile